createdAt,value
2023-12-27T00:01:56.458Z,97919.53
2023-12-27T00:04:24.197Z,97925.41
2023-12-27T00:06:53.441Z,97926.47
2023-12-27T00:09:22.716Z,97925.47
2023-12-27T00:11:59.736Z,97922.16
2023-12-27T00:14:27.395Z,97921.06
2023-12-27T00:16:55.084Z,97926.31
2023-12-27T00:19:22.880Z,97929.84
2023-12-27T00:21:50.630Z,97935.88
2023-12-27T00:24:20.951Z,97946.50
2023-12-27T00:26:50.084Z,97936.13
2023-12-27T00:29:20.655Z,97936.19
2023-12-27T00:31:50.205Z,97936.00
2023-12-27T00:34:18.485Z,97928.94
2023-12-27T00:36:46.214Z,97927.19
2023-12-27T00:39:14.058Z,97915.78
2023-12-27T00:41:44.042Z,97926.75
2023-12-27T00:44:14.400Z,97928.53
2023-12-27T00:46:45.684Z,97914.41
2023-12-27T00:49:20.988Z,97920.66
2023-12-27T00:51:51.709Z,97921.34
2023-12-27T00:54:20.286Z,97915.91
2023-12-27T00:56:49.581Z,97921.16
2023-12-27T00:59:18.645Z,97915.25
2023-12-27T01:01:46.357Z,97911.44
2023-12-27T01:04:16.602Z,97912.84
2023-12-27T01:06:44.522Z,97918.22
2023-12-27T01:09:12.220Z,97926.25
2023-12-27T01:11:39.932Z,97926.19
2023-12-27T01:14:07.829Z,97923.00
2023-12-27T01:16:36.937Z,97916.84
2023-12-27T01:19:06.522Z,97921.03
2023-12-27T01:21:34.596Z,97919.31
2023-12-27T01:24:02.401Z,97933.28
2023-12-27T01:26:30.047Z,97930.56
2023-12-27T01:28:57.879Z,97940.91
2023-12-27T01:31:25.531Z,97934.75
2023-12-27T01:33:58.850Z,97936.19
2023-12-27T01:36:32.503Z,97939.91
2023-12-27T01:39:03.581Z,97939.53
2023-12-27T01:41:33.596Z,97940.19
2023-12-27T01:44:03.478Z,97942.00
2023-12-27T01:46:31.858Z,97940.75
2023-12-27T01:49:01.274Z,97957.53
2023-12-27T01:51:29.196Z,97962.56
2023-12-27T01:53:57.773Z,97959.19
2023-12-27T01:56:26.811Z,97964.91
2023-12-27T01:58:57.143Z,97963.00
2023-12-27T02:01:24.880Z,97957.16
2023-12-27T02:03:52.655Z,97944.25
2023-12-27T02:06:24.247Z,97947.75
2023-12-27T02:08:55.125Z,97946.56
2023-12-27T02:11:22.768Z,97952.72
2023-12-27T02:13:53.540Z,97957.56
2023-12-27T02:16:22.613Z,97957.94
2023-12-27T02:18:50.785Z,97949.28
2023-12-27T02:21:19.198Z,97948.88
2023-12-27T02:23:50.905Z,97939.06
2023-12-27T02:26:22.699Z,97937.94
2023-12-27T02:28:50.324Z,97938.72
2023-12-27T02:31:20.956Z,97935.25
2023-12-27T02:33:51.581Z,97931.16
2023-12-27T02:36:19.420Z,97928.81
2023-12-27T02:38:47.319Z,97923.13
2023-12-27T02:41:15.419Z,97915.97
2023-12-27T02:43:44.494Z,97913.00
2023-12-27T02:46:15.142Z,97918.63
2023-12-27T02:48:42.995Z,97911.28
2023-12-27T02:51:10.737Z,97910.38
2023-12-27T02:53:40.121Z,97899.69
2023-12-27T02:56:08.790Z,97896.00
2023-12-27T02:58:36.740Z,97901.91
2023-12-27T03:01:06.281Z,97890.72
2023-12-27T03:03:34.077Z,97894.97
2023-12-27T03:06:01.922Z,97894.28
2023-12-27T03:08:29.814Z,97890.44
2023-12-27T03:10:57.937Z,97884.16
2023-12-27T03:13:25.631Z,97888.00
2023-12-27T03:15:53.285Z,97879.22
2023-12-27T03:18:22.472Z,97883.38
2023-12-27T03:20:50.160Z,97866.22
2023-12-27T03:23:18.166Z,97861.88
2023-12-27T03:25:46.001Z,97863.41
2023-12-27T03:28:13.772Z,97859.75
2023-12-27T03:30:41.539Z,97869.38
2023-12-27T03:33:09.341Z,97869.50
2023-12-27T03:35:38.682Z,97865.66
2023-12-27T03:38:07.112Z,97870.91
2023-12-27T03:40:34.889Z,97866.91
2023-12-27T03:43:02.499Z,97864.22
2023-12-27T03:45:30.351Z,97864.91
2023-12-27T03:47:58.474Z,97860.25
2023-12-27T03:50:26.392Z,97864.44
2023-12-27T03:52:55.435Z,97870.69
2023-12-27T03:55:25.442Z,97872.63
2023-12-27T03:57:53.440Z,97868.31
2023-12-27T04:00:21.645Z,97865.22
2023-12-27T04:02:49.772Z,97862.75
2023-12-27T04:05:17.605Z,97856.09
2023-12-27T04:07:45.488Z,97861.06
2023-12-27T04:10:14.733Z,97851.09
2023-12-27T04:12:42.383Z,97846.28
2023-12-27T04:15:10.891Z,97854.81
2023-12-27T04:17:38.976Z,97873.53
2023-12-27T04:20:07.560Z,97848.47
2023-12-27T04:22:35.281Z,97866.03
2023-12-27T04:25:04.200Z,97864.44
2023-12-27T04:27:33.575Z,97862.28
2023-12-27T04:30:01.500Z,97868.75
2023-12-27T04:32:29.327Z,97863.50
2023-12-27T04:34:57.002Z,97862.88
2023-12-27T04:37:24.646Z,97859.50
2023-12-27T04:39:52.258Z,97864.22
2023-12-27T04:42:19.931Z,97855.34
2023-12-27T04:44:49.155Z,97859.25
2023-12-27T04:47:16.749Z,97854.59
2023-12-27T04:49:44.540Z,97850.28
2023-12-27T04:52:12.360Z,97852.41
2023-12-27T04:54:40.265Z,97852.56
2023-12-27T04:57:07.952Z,97855.03
2023-12-27T04:59:35.634Z,97851.88
2023-12-27T05:02:04.731Z,97840.47
2023-12-27T05:04:32.624Z,97839.63
2023-12-27T05:07:00.433Z,97834.56
2023-12-27T05:09:28.065Z,97831.88
2023-12-27T05:11:55.894Z,97833.50
2023-12-27T05:14:23.511Z,97838.50
2023-12-27T05:16:52.053Z,97831.03
2023-12-27T05:19:21.404Z,97831.56
2023-12-27T05:21:49.192Z,97842.69
2023-12-27T05:24:17.015Z,97840.44
2023-12-27T05:26:44.622Z,97844.25
2023-12-27T05:29:12.671Z,97842.06
2023-12-27T05:31:40.477Z,97839.28
2023-12-27T05:34:08.436Z,97833.66
2023-12-27T05:36:37.945Z,97833.78
2023-12-27T05:39:06.105Z,97836.97
2023-12-27T05:41:33.807Z,97837.34
2023-12-27T05:44:02.504Z,97831.09
2023-12-27T05:46:30.236Z,97830.47
2023-12-27T05:48:58.408Z,97830.47
2023-12-27T05:51:26.136Z,97828.84
2023-12-27T05:53:55.263Z,97823.06
2023-12-27T05:56:23.031Z,97818.06
2023-12-27T05:58:51.295Z,97812.88
2023-12-27T06:01:20.226Z,97819.78
2023-12-27T06:03:48.055Z,97829.41
2023-12-27T06:06:15.803Z,97837.09
2023-12-27T06:08:43.448Z,97839.03
2023-12-27T06:11:14.152Z,97834.53
2023-12-27T06:13:41.840Z,97843.72
2023-12-27T06:16:11.746Z,97846.72
2023-12-27T06:18:39.868Z,97827.88
2023-12-27T06:21:07.771Z,97832.72
2023-12-27T06:23:35.548Z,97830.31
2023-12-27T06:26:03.258Z,97831.88
2023-12-27T06:28:32.262Z,97833.59
2023-12-27T06:31:00.407Z,97825.53
2023-12-27T06:33:28.361Z,97831.41
2023-12-27T06:35:56.167Z,97833.03
2023-12-27T06:38:23.890Z,97835.66
2023-12-27T06:40:51.612Z,97831.84
2023-12-27T06:43:20.632Z,97832.69
2023-12-27T06:45:50.257Z,97829.97
2023-12-27T06:48:18.134Z,97841.22
2023-12-27T06:50:45.972Z,97831.13
2023-12-27T06:53:13.702Z,97843.41
2023-12-27T06:55:41.411Z,97851.09
2023-12-27T06:58:09.247Z,97842.16
2023-12-27T07:00:39.743Z,97839.09
2023-12-27T07:03:09.134Z,97835.38
2023-12-27T07:05:38.051Z,97834.16
2023-12-27T07:08:06.047Z,97834.94
2023-12-27T07:10:34.033Z,97833.22
2023-12-27T07:13:02.719Z,97817.88
2023-12-27T07:15:30.905Z,97823.31
2023-12-27T07:17:58.928Z,97832.47
2023-12-27T07:20:30.565Z,97828.78
2023-12-27T07:22:58.550Z,97847.44
2023-12-27T07:25:26.529Z,97847.63
2023-12-27T07:27:54.288Z,97847.91
2023-12-27T07:30:22.292Z,97833.94
2023-12-27T07:32:50.376Z,97826.09
2023-12-27T07:35:18.781Z,97841.84
2023-12-27T07:37:47.999Z,97834.81
2023-12-27T07:40:16.909Z,97829.16
2023-12-27T07:42:45.561Z,97828.78
2023-12-27T07:45:13.414Z,97812.66
2023-12-27T07:47:41.284Z,97809.88
2023-12-27T07:50:09.583Z,97808.34
2023-12-27T07:52:37.270Z,97806.25
2023-12-27T07:55:07.062Z,97792.81
2023-12-27T07:57:34.816Z,97790.22
2023-12-27T08:00:02.974Z,97794.34
2023-12-27T08:02:31.790Z,97787.28
2023-12-27T08:04:59.622Z,97782.72
2023-12-27T08:07:27.262Z,97780.81
2023-12-27T08:09:54.926Z,97788.06
2023-12-27T08:12:23.941Z,97796.25
2023-12-27T08:14:51.629Z,97801.59
2023-12-27T08:17:19.375Z,97800.94
2023-12-27T08:19:47.465Z,97793.00
2023-12-27T08:22:15.339Z,97781.13
2023-12-27T08:24:43.157Z,97777.25
2023-12-27T08:27:10.982Z,97771.22
2023-12-27T08:29:40.985Z,97762.75
2023-12-27T08:32:09.144Z,97760.91
2023-12-27T08:34:36.923Z,97765.00
2023-12-27T08:37:04.953Z,97761.81
2023-12-27T08:39:32.914Z,97765.53
2023-12-27T08:42:02.403Z,97781.25
2023-12-27T08:44:30.076Z,97780.41
2023-12-27T08:46:59.216Z,97791.00
2023-12-27T08:49:27.171Z,97801.22
2023-12-27T08:51:54.887Z,97794.34
2023-12-27T08:54:22.655Z,97807.63
2023-12-27T08:56:50.364Z,97807.59
2023-12-27T08:59:18.056Z,97788.31
2023-12-27T09:01:45.844Z,97806.53
2023-12-27T09:04:14.906Z,97808.63
2023-12-27T09:06:42.598Z,97799.47
2023-12-27T09:09:13.216Z,97805.25
2023-12-27T09:11:42.617Z,97799.78
2023-12-27T09:14:11.568Z,97788.94
2023-12-27T09:16:39.504Z,97795.56
2023-12-27T09:19:07.476Z,97776.31
2023-12-27T09:21:44.209Z,97786.34
2023-12-27T09:24:12.237Z,97788.84
2023-12-27T09:26:40.033Z,97793.47
2023-12-27T09:29:10.316Z,97780.63
2023-12-27T09:31:38.821Z,97766.47
2023-12-27T09:34:07.099Z,97764.94
2023-12-27T09:36:36.802Z,97756.84
2023-12-27T09:39:05.003Z,97752.44
2023-12-27T09:41:33.082Z,97747.78
2023-12-27T09:44:01.350Z,97743.59
2023-12-27T09:46:30.465Z,97734.66
2023-12-27T09:48:58.251Z,97747.03
2023-12-27T09:51:27.420Z,97749.94
2023-12-27T09:53:56.804Z,97750.94
2023-12-27T09:56:24.905Z,97751.13
2023-12-27T09:58:58.061Z,97740.56
2023-12-27T10:01:26.235Z,97748.00
2023-12-27T10:03:56.981Z,97732.25
2023-12-27T10:06:29.198Z,97749.16
2023-12-27T10:08:58.801Z,97749.41
2023-12-27T10:11:26.853Z,97753.13
2023-12-27T10:13:54.556Z,97749.72
2023-12-27T10:16:22.221Z,97749.94
2023-12-27T10:18:50.014Z,97745.00
2023-12-27T10:21:20.053Z,97738.78
2023-12-27T10:23:47.874Z,97731.22
2023-12-27T10:26:17.031Z,97728.06
2023-12-27T10:28:45.738Z,97713.56
2023-12-27T10:31:13.550Z,97703.78
2023-12-27T10:33:46.611Z,97705.84
2023-12-27T10:36:14.469Z,97695.00
2023-12-27T10:38:42.191Z,97677.88
2023-12-27T10:41:13.191Z,97666.03
2023-12-27T10:43:43.775Z,97677.19
2023-12-27T10:46:13.139Z,97673.22
2023-12-27T10:48:42.179Z,97680.03
2023-12-27T10:51:10.554Z,97672.69
2023-12-27T10:53:38.370Z,97673.56
2023-12-27T10:56:06.966Z,97669.47
2023-12-27T10:58:36.756Z,97670.53
2023-12-27T11:01:06.652Z,97656.16
2023-12-27T11:03:34.782Z,97658.03
2023-12-27T11:06:03.300Z,97653.59
2023-12-27T11:08:34.404Z,97649.13
2023-12-27T11:11:03.495Z,97642.47
2023-12-27T11:13:32.338Z,97628.59
2023-12-27T11:16:00.970Z,97619.53
2023-12-27T11:18:32.785Z,97632.19
2023-12-27T11:21:01.411Z,97620.69
2023-12-27T11:23:29.588Z,97612.97
2023-12-27T11:25:57.545Z,97615.44
2023-12-27T11:28:30.688Z,97612.66
2023-12-27T11:31:00.592Z,97579.63
2023-12-27T11:33:32.573Z,97599.06
2023-12-27T11:36:05.070Z,97599.44
2023-12-27T11:38:33.781Z,97600.59
2023-12-27T11:41:02.946Z,97576.97
2023-12-27T11:43:52.773Z,97575.91
2023-12-27T11:46:28.819Z,97582.78
2023-12-27T11:48:59.957Z,97578.19
2023-12-27T11:51:33.450Z,97573.22
2023-12-27T11:54:04.060Z,97558.81
2023-12-27T11:56:35.349Z,97565.94
2023-12-27T11:59:07.406Z,97556.78
2023-12-27T12:01:37.370Z,97543.41
2023-12-27T12:04:41.061Z,97542.09
2023-12-27T12:07:22.297Z,97544.09
2023-12-27T12:09:50.262Z,97546.44
2023-12-27T12:12:19.277Z,97548.09
2023-12-27T12:14:47.251Z,97533.97
2023-12-27T12:17:15.454Z,97532.31
2023-12-27T12:19:43.571Z,97524.44
2023-12-27T12:22:14.708Z,97536.78
2023-12-27T12:24:42.550Z,97530.41
2023-12-27T12:27:11.401Z,97534.03
2023-12-27T12:29:39.163Z,97528.34
2023-12-27T12:32:07.857Z,97527.47
2023-12-27T12:34:35.722Z,97526.91
2023-12-27T12:37:03.381Z,97523.63
2023-12-27T12:39:32.630Z,97524.63
2023-12-27T12:42:01.111Z,97524.56
2023-12-27T12:44:30.563Z,97517.31
2023-12-27T12:46:58.743Z,97506.16
2023-12-27T12:49:27.084Z,97510.56
2023-12-27T12:51:59.365Z,97506.13
2023-12-27T12:54:29.123Z,97505.88
2023-12-27T12:57:01.294Z,97503.88
2023-12-27T12:59:30.839Z,97499.47
2023-12-27T13:01:58.642Z,97500.63
2023-12-27T13:04:26.701Z,97485.72
2023-12-27T13:07:00.970Z,97484.69
2023-12-27T13:09:28.965Z,97481.84
2023-12-27T13:11:56.723Z,97485.63
2023-12-27T13:14:26.106Z,97468.25
2023-12-27T13:16:53.824Z,97486.03
2023-12-27T13:19:24.959Z,97486.88
2023-12-27T13:21:52.953Z,97483.56
2023-12-27T13:24:20.774Z,97473.88
2023-12-27T13:26:48.437Z,97469.00
2023-12-27T13:29:16.463Z,97471.47
2023-12-27T13:31:45.694Z,97460.75
2023-12-27T13:34:13.668Z,97465.25
2023-12-27T13:36:42.069Z,97458.41
2023-12-27T13:39:10.633Z,97467.78
2023-12-27T13:41:37.534Z,97442.63
2023-12-27T13:44:05.564Z,97445.34
2023-12-27T13:46:34.220Z,97443.66
2023-12-27T13:49:04.055Z,97439.06
2023-12-27T13:51:31.955Z,97429.97
2023-12-27T13:54:05.901Z,97435.69
2023-12-27T13:56:40.083Z,97431.00
2023-12-27T13:59:07.812Z,97418.06
2023-12-27T14:01:40.874Z,97417.00
2023-12-27T14:04:10.170Z,97418.06
2023-12-27T14:06:38.610Z,97424.16
2023-12-27T14:09:09.125Z,97419.16
2023-12-27T14:11:37.014Z,97406.03
2023-12-27T14:14:06.068Z,97403.13
2023-12-27T14:16:34.022Z,97397.97
2023-12-27T14:19:02.217Z,97393.78
2023-12-27T14:21:31.458Z,97391.19
2023-12-27T14:23:59.257Z,97398.13
2023-12-27T14:26:27.077Z,97400.22
2023-12-27T14:28:56.573Z,97396.81
2023-12-27T14:31:27.543Z,97395.13
2023-12-27T14:33:55.733Z,97400.22
2023-12-27T14:36:23.532Z,97397.13
2023-12-27T14:38:53.258Z,97404.06
2023-12-27T14:41:21.990Z,97401.06
2023-12-27T14:43:49.697Z,97402.69
2023-12-27T14:46:17.654Z,97399.84
2023-12-27T14:48:47.276Z,97397.41
2023-12-27T14:51:16.632Z,97403.41
2023-12-27T14:53:44.828Z,97404.00
2023-12-27T14:56:13.892Z,97398.72
2023-12-27T14:58:41.610Z,97399.63
2023-12-27T15:01:09.709Z,97396.16
2023-12-27T15:03:38.146Z,97376.91
2023-12-27T15:06:06.596Z,97387.97
2023-12-27T15:08:34.288Z,97390.44
2023-12-27T15:11:02.012Z,97383.66
2023-12-27T15:13:31.375Z,97377.69
2023-12-27T15:15:59.881Z,97387.09
2023-12-27T15:18:31.628Z,97377.88
2023-12-27T15:20:59.537Z,97376.28
2023-12-27T15:23:28.327Z,97367.19
2023-12-27T15:25:56.128Z,97375.31
2023-12-27T15:28:26.032Z,97382.06
2023-12-27T15:30:55.490Z,97390.97
2023-12-27T15:33:23.869Z,97383.56
2023-12-27T15:35:51.644Z,97374.66
2023-12-27T15:38:19.470Z,97382.78
2023-12-27T15:40:47.280Z,97381.53
2023-12-27T15:43:14.991Z,97376.66
2023-12-27T15:45:42.824Z,97371.16
2023-12-27T15:48:16.148Z,97374.97
2023-12-27T15:50:44.134Z,97372.63
2023-12-27T15:53:13.924Z,97363.94
2023-12-27T15:55:41.692Z,97361.00
2023-12-27T15:58:09.502Z,97357.09
2023-12-27T16:00:37.604Z,97356.44
2023-12-27T16:03:07.048Z,97365.94
2023-12-27T16:05:36.645Z,97360.41
2023-12-27T16:08:06.041Z,97357.81
2023-12-27T16:10:33.627Z,97362.22
2023-12-27T16:13:01.284Z,97357.13
2023-12-27T16:15:31.474Z,97359.50
2023-12-27T16:18:01.515Z,97361.56
2023-12-27T16:20:29.659Z,97349.16
2023-12-27T16:22:59.106Z,97342.78
2023-12-27T16:25:27.103Z,97356.63
2023-12-27T16:27:59.374Z,97351.16
2023-12-27T16:30:27.204Z,97352.56
2023-12-27T16:32:55.194Z,97348.69
2023-12-27T16:35:24.500Z,97350.94
2023-12-27T16:37:52.566Z,97346.69
2023-12-27T16:40:21.656Z,97344.06
2023-12-27T16:42:50.656Z,97344.66
2023-12-27T16:45:24.836Z,97337.91
2023-12-27T16:47:58.818Z,97335.00
2023-12-27T16:50:27.408Z,97333.59
2023-12-27T16:52:56.435Z,97328.06
2023-12-27T16:55:27.297Z,97323.03
2023-12-27T16:57:55.964Z,97324.88
2023-12-27T17:00:23.674Z,97313.91
2023-12-27T17:02:51.574Z,97310.94
2023-12-27T17:05:19.249Z,97312.56
2023-12-27T17:07:46.971Z,97310.69
2023-12-27T17:10:14.701Z,97310.19
2023-12-27T17:12:45.201Z,97309.94
2023-12-27T17:15:13.858Z,97312.63
2023-12-27T17:17:41.896Z,97300.06
2023-12-27T17:20:10.697Z,97309.50
2023-12-27T17:22:38.388Z,97303.78
2023-12-27T17:25:09.302Z,97305.19
2023-12-27T17:27:37.085Z,97307.94
2023-12-27T17:30:08.336Z,97303.78
2023-12-27T17:32:37.414Z,97283.28
2023-12-27T17:35:07.045Z,97307.16
2023-12-27T17:37:35.730Z,97301.56
2023-12-27T17:40:05.993Z,97285.34
2023-12-27T17:42:34.055Z,97297.88
2023-12-27T17:45:02.022Z,97298.53
2023-12-27T17:47:31.575Z,97286.47
2023-12-27T17:49:59.940Z,97287.66
2023-12-27T17:52:29.413Z,97291.44
2023-12-27T17:54:57.655Z,97291.97
2023-12-27T17:57:25.754Z,97288.22
2023-12-27T17:59:55.353Z,97291.78
2023-12-27T18:02:23.174Z,97286.88
2023-12-27T18:04:52.886Z,97283.00
2023-12-27T18:07:20.580Z,97273.38
2023-12-27T18:09:48.932Z,97270.66
2023-12-27T18:12:16.852Z,97265.25
2023-12-27T18:14:47.426Z,97267.56
2023-12-27T18:17:15.450Z,97257.84
2023-12-27T18:19:44.060Z,97281.03
2023-12-27T18:22:13.727Z,97268.63
2023-12-27T18:24:52.534Z,97248.78
2023-12-27T18:27:20.381Z,97245.13
2023-12-27T18:29:48.219Z,97253.66
2023-12-27T18:32:15.881Z,97250.75
2023-12-27T18:34:43.688Z,97264.56
2023-12-27T18:37:12.896Z,97260.88
2023-12-27T18:39:41.369Z,97248.72
2023-12-27T18:42:09.255Z,97253.44
2023-12-27T18:44:37.012Z,97255.97
2023-12-27T18:47:05.216Z,97238.22
2023-12-27T18:49:33.050Z,97252.06
2023-12-27T18:52:00.893Z,97239.06
2023-12-27T18:54:30.050Z,97230.31
2023-12-27T18:56:57.789Z,97223.13
2023-12-27T18:59:25.648Z,97223.38
2023-12-27T19:01:53.479Z,97225.22
2023-12-27T19:04:21.354Z,97236.88
2023-12-27T19:06:49.048Z,97216.13
2023-12-27T19:09:16.859Z,97218.22
2023-12-27T19:11:46.141Z,97222.88
2023-12-27T19:14:13.914Z,97231.38
2023-12-27T19:16:41.549Z,97224.72
2023-12-27T19:19:10.616Z,97234.66
2023-12-27T19:21:41.206Z,97233.47
2023-12-27T19:24:09.858Z,97233.47
2023-12-27T19:26:38.429Z,97227.25
2023-12-27T19:29:19.113Z,97229.09
2023-12-27T19:31:50.724Z,97236.88
2023-12-27T19:34:20.288Z,97245.66
2023-12-27T19:39:43.049Z,97231.91
2023-12-27T19:42:19.536Z,97256.13
2023-12-27T19:44:53.373Z,97243.81
2023-12-27T19:50:08.612Z,97245.09
2023-12-27T19:52:36.883Z,97227.75
2023-12-27T19:55:13.759Z,97249.53
2023-12-27T19:57:44.843Z,97248.44
2023-12-27T20:00:25.974Z,97235.66
2023-12-27T20:02:55.359Z,97251.22
2023-12-27T20:05:23.774Z,97245.31
2023-12-27T20:08:13.229Z,97242.78
2023-12-27T20:10:55.594Z,97241.22
2023-12-27T20:13:23.283Z,97248.25
2023-12-27T20:15:54.376Z,97249.59
2023-12-27T20:18:24.187Z,97249.34
2023-12-27T20:20:52.808Z,97253.72
2023-12-27T20:23:22.044Z,97261.50
2023-12-27T20:25:50.386Z,97246.31
2023-12-27T20:28:18.166Z,97280.72
2023-12-27T20:30:47.407Z,97263.84
2023-12-27T20:33:17.002Z,97264.75
2023-12-27T20:35:44.945Z,97279.09
2023-12-27T20:38:12.716Z,97260.41
2023-12-27T20:40:40.384Z,97274.31
2023-12-27T20:43:09.135Z,97285.22
2023-12-27T20:45:36.823Z,97279.94
2023-12-27T20:48:05.258Z,97275.16
2023-12-27T20:50:34.580Z,97275.25
2023-12-27T20:53:02.254Z,97273.22
2023-12-27T20:55:29.935Z,97274.91
2023-12-27T20:57:58.041Z,97280.31
2023-12-27T21:00:26.208Z,97275.44
2023-12-27T21:02:53.994Z,97267.38
2023-12-27T21:05:21.764Z,97266.16
2023-12-27T21:07:50.956Z,97259.72
2023-12-27T21:10:18.598Z,97265.44
2023-12-27T21:12:46.269Z,97269.66
2023-12-27T21:15:14.158Z,97273.44
2023-12-27T21:17:42.625Z,97275.44
2023-12-27T21:20:11.776Z,97257.25
2023-12-27T21:22:39.535Z,97243.16
2023-12-27T21:25:10.076Z,97252.09
2023-12-27T21:27:37.802Z,97262.16
2023-12-27T21:30:05.492Z,97271.41
2023-12-27T21:32:33.224Z,97276.09
2023-12-27T21:35:01.308Z,97266.19
2023-12-27T21:37:29.082Z,97273.78
2023-12-27T21:39:56.946Z,97270.53
2023-12-27T21:42:26.021Z,97278.16
2023-12-27T21:44:53.830Z,97279.53
2023-12-27T21:47:21.463Z,97276.72
2023-12-27T21:49:49.223Z,97280.47
2023-12-27T21:52:17.083Z,97280.84
2023-12-27T21:54:44.892Z,97283.00
2023-12-27T21:57:12.635Z,97270.78
2023-12-27T21:59:41.680Z,97272.47
2023-12-27T22:02:09.411Z,97255.88
2023-12-27T22:04:37.102Z,97258.50
2023-12-27T22:07:07.502Z,97246.88
2023-12-27T22:09:36.764Z,97246.03
2023-12-27T22:12:05.743Z,97244.50
2023-12-27T22:14:33.384Z,97247.56
2023-12-27T22:17:02.378Z,97235.81
2023-12-27T22:19:30.041Z,97243.53
2023-12-27T22:21:57.831Z,97246.94
2023-12-27T22:24:25.564Z,97245.19
2023-12-27T22:26:53.262Z,97238.09
2023-12-27T22:29:20.992Z,97236.00
2023-12-27T22:31:49.029Z,97236.09
2023-12-27T22:34:18.180Z,97221.88
2023-12-27T22:36:45.910Z,97222.59
2023-12-27T22:39:13.658Z,97228.25
2023-12-27T22:41:41.267Z,97230.19
2023-12-27T22:44:08.898Z,97224.97
2023-12-27T22:46:36.614Z,97228.28
2023-12-27T22:49:04.310Z,97220.75
2023-12-27T22:51:33.345Z,97223.16
2023-12-27T22:54:00.970Z,97238.94
2023-12-27T22:56:28.630Z,97246.13
2023-12-27T22:58:56.414Z,97260.84
2023-12-27T23:01:24.106Z,97256.94
2023-12-27T23:03:51.789Z,97259.03
2023-12-27T23:06:19.515Z,97261.16
2023-12-27T23:08:49.568Z,97257.28
2023-12-27T23:11:17.301Z,97265.94
2023-12-27T23:13:45.103Z,97265.47
2023-12-27T23:16:12.856Z,97263.50
2023-12-27T23:18:40.792Z,97249.28
2023-12-27T23:21:08.865Z,97263.78
2023-12-27T23:23:37.505Z,97254.25
2023-12-27T23:26:09.103Z,97249.34
2023-12-27T23:28:36.899Z,97260.31
2023-12-27T23:31:07.758Z,97266.75
2023-12-27T23:33:36.099Z,97270.19
2023-12-27T23:36:04.810Z,97262.94
2023-12-27T23:38:32.488Z,97263.84
2023-12-27T23:41:01.677Z,97264.09
2023-12-27T23:43:31.205Z,97254.78
2023-12-27T23:45:59.967Z,97253.47
2023-12-27T23:48:27.951Z,97254.31
2023-12-27T23:51:00.165Z,97266.34
2023-12-27T23:53:28.089Z,97274.34
2023-12-27T23:55:56.561Z,97261.47
2023-12-27T23:58:25.031Z,97260.09
